Westwood, Ohio
Current Conditions -  °F | °C
As of 9:17 AM on Wednesday 28 Jan 2015 (Local Time) from KI69 Reporting Station
Haze Haze  
Wind Chill: 19°   Ceiling: Unl
Heat Index: 19°   Visibility: 5mi
Dew Point: 19°   Wind: 0mph
Humidity: 100%   Direction: NA
Pressure: 30.37"   Gusts: NA
Location:  39.1663°N, 84.6602°W
Report Text: KI69 281417Z AUTO 00000KT 5SM BR CLR M07/M07 A3037 RMK AO1
Loading
Personal Weather Stations






























Interactive Weather Map New forecast layout! Learn more

10-Day Weather Forecast

Advertisements
Track Severe Weather on mobile